Marilyn M — WDH6367 — position and weather

sailwx.info

Track history (hours):
 
Tides and Currents Weather Stations Pressure Air Temp Water Temp Dewpoint Dewpoint Depression Visibility Wind Speed Wind Dir Waves Ship Positions

Marilyn M

Owner: Offshore Oil Services Inc., Clute, TX. More information available from US FCC via Universal Licensing System and Coast Guard Vessel Documentation Center.

Last reported at 2018-Jan-24 06:36 UTC. Time now 2018-Jan-24 11:27 UTC.
Position N 29°41' W 092°15'.

Length 45 m; draft 3 m.

Type: Passenger vessel. MMSI: 367637210.

Date/timePositionNaut miles runAvg speedWind from/ knotsBaromVisibWave heightAir tempDewpointWater temp
2018-Jan-24 06:36N 29°41' W 092°15'220.8
2018-Jan-24 06:30N 29°43' W 092°15'714.2
2018-Jan-24 06:01N 29°48' W 092°09'0 0.1
2018-Jan-24 05:31N 29°48' W 092°09'0 0.0
2018-Jan-24 05:00N 29°48' W 092°09'0 0.3
2018-Jan-24 04:30N 29°48' W 092°09'0 0.0
2018-Jan-24 04:00N 29°48' W 092°09'0 0.0
2018-Jan-24 03:31N 29°48' W 092°09'0 0.0
2018-Jan-24 03:01N 29°48' W 092°09'0 0.0
2018-Jan-24 02:30N 29°48' W 092°09'0 0.0
2018-Jan-24 02:00N 29°48' W 092°09'1 1.0
2018-Jan-24 01:31N 29°47' W 092°09'815.4
2018-Jan-24 01:00N 29°42' W 092°15'2 0.2
2018-Jan-23 18:31N 29°43' W 092°15'026.5
2018-Jan-23 18:30N 29°43' W 092°15'713.5
2018-Jan-23 18:01N 29°48' W 092°09'0 0.0
2018-Jan-23 17:31N 29°48' W 092°09'0 0.0
2018-Jan-23 17:01N 29°48' W 092°09'0 0.7
2018-Jan-23 16:31N 29°47' W 092°09'815.3
2018-Jan-23 16:01N 29°42' W 092°15'1 0.1
2018-Jan-23 08:38N 29°41' W 092°15'325.1
2018-Jan-23 08:31N 29°44' W 092°14'611.6
2018-Jan-23 08:00N 29°48' W 092°09'0 0.0
2018-Jan-23 07:30N 29°48' W 092°09'0 0.0
2018-Jan-23 07:00N 29°48' W 092°09'0 0.0
2018-Jan-23 00:16N 29°48' W 092°09'0 0.0
2018-Jan-23 00:00N 29°48' W 092°09'0 0.0
2018-Jan-22 23:30N 29°48' W 092°09'0 0.0
2018-Jan-22 23:00N 29°48' W 092°09'0 0.0
2018-Jan-22 22:30N 29°48' W 092°09'0 0.0
2018-Jan-22 22:00N 29°48' W 092°09'0 0.0
2018-Jan-22 21:30N 29°48' W 092°09'0 0.0
2018-Jan-22 20:59N 29°48' W 092°09'1 1.2
2018-Jan-22 20:30N 29°47' W 092°09'7 0.9
2018-Jan-22 12:40N 29°42' W 092°15'423.8
2018-Jan-22 12:30N 29°45' W 092°13'4 8.3
2018-Jan-22 12:00N 29°48' W 092°09'0 0.0
2018-Jan-22 11:30N 29°48' W 092°09'0 0.0
2018-Jan-22 11:00N 29°48' W 092°09'0 0.0
2018-Jan-22 10:30N 29°48' W 092°09'0 0.0
2018-Jan-22 00:47N 29°48' W 092°09'1 3.0
2018-Jan-22 00:30N 29°47' W 092°09'1 2.5
2018-Jan-22 00:00N 29°47' W 092°11'1 3.0
2018-Jan-21 23:31N 29°47' W 092°09'1 1.3
2018-Jan-21 23:00N 29°48' W 092°09'2 4.7
2018-Jan-21 22:30N 29°46' W 092°11'4 0.5
2018-Jan-21 13:31N 29°43' W 092°15'012.6
2018-Jan-21 13:30N 29°44' W 092°15'510.9
2018-Jan-21 13:00N 29°47' W 092°10'1 2.4
2018-Jan-21 12:30N 29°48' W 092°09'0 0.3
2018-Jan-21 11:58N 29°48' W 092°09'0 0.0
2018-Jan-21 11:30N 29°48' W 092°09'0 0.0
2018-Jan-20 17:42N 29°48' W 092°09'0 2.3
2018-Jan-20 17:31N 29°47' W 092°09'816.4
2018-Jan-20 17:01N 29°41' W 092°15'2 0.3
2018-Jan-20 09:07N 29°44' W 092°15'324.6
2018-Jan-20 09:01N 29°45' W 092°12'4 7.8
2018-Jan-20 08:30N 29°48' W 092°09'0 0.0
2018-Jan-20 08:00N 29°48' W 092°09'0 0.0
2018-Jan-20 07:30N 29°48' W 092°09'0 0.0
2018-Jan-20 07:00N 29°48' W 092°09'0 0.0
2018-Jan-20 06:30N 29°48' W 092°09'0 0.0
2018-Jan-20 06:00N 29°48' W 092°09'0 0.0
2018-Jan-20 04:14N 29°48' W 092°09'0 0.1
2018-Jan-20 04:00N 29°48' W 092°09'0 0.0
2018-Jan-20 03:30N 29°48' W 092°09'0 0.1
2018-Jan-20 03:00N 29°48' W 092°09'2 4.7
2018-Jan-20 02:31N 29°46' W 092°11'816.5
2018-Jan-20 02:00N 29°39' W 092°16'4 0.5
2018-Jan-19 17:45N 29°43' W 092°15'521.4
2018-Jan-19 17:30N 29°46' W 092°10'2 3.3
2018-Jan-19 16:53N 29°48' W 092°09'0 0.0
2018-Jan-19 16:30N 29°48' W 092°09'0 0.0
2018-Jan-19 16:00N 29°48' W 092°09'0 0.0
2018-Jan-19 15:30N 29°48' W 092°09'0 0.0
2018-Jan-19 15:00N 29°48' W 092°09'0 0.0
2018-Jan-19 14:28N 29°48' W 092°09'0 0.0
2018-Jan-19 13:53N 29°48' W 092°09'0 0.0
2018-Jan-19 13:26N 29°48' W 092°09'0 0.0
2018-Jan-19 12:59N 29°48' W 092°09'0 0.0
2018-Jan-19 12:29N 29°48' W 092°09'0 0.3
2018-Jan-19 12:00N 29°47' W 092°09'0 0.0
2018-Jan-19 11:30N 29°47' W 092°09'0 0.6
2018-Jan-19 11:00N 29°47' W 092°09'815.8
2018-Jan-19 10:30N 29°42' W 092°15'2 0.2
2018-Jan-19 03:08N 29°43' W 092°15'220.0
2018-Jan-19 03:00N 29°45' W 092°13'4 8.6
2018-Jan-19 02:30N 29°47' W 092°09'0 0.1
2018-Jan-19 01:58N 29°48' W 092°09'0 0.3
2018-Jan-19 01:28N 29°48' W 092°09'0 0.0
2018-Jan-19 00:55N 29°48' W 092°09'0 0.0
2018-Jan-18 23:49N 29°48' W 092°09'0 0.0
2018-Jan-18 23:28N 29°48' W 092°09'0 0.0
2018-Jan-18 22:58N 29°48' W 092°09'0 0.0
2018-Jan-18 22:25N 29°48' W 092°09'0 0.0
2018-Jan-18 21:49N 29°48' W 092°09'0 0.0
2018-Jan-18 21:22N 29°48' W 092°09'0 0.0
2018-Jan-18 20:58N 29°48' W 092°09'0 0.0
2018-Jan-18 20:28N 29°48' W 092°09'0 0.0
2018-Jan-18 19:53N 29°48' W 092°09'0 0.0
2018-Jan-18 19:30N 29°48' W 092°09'0 0.0
2018-Jan-18 18:57N 29°48' W 092°09'0 0.0
2018-Jan-18 18:30N 29°48' W 092°09'0 0.0
2018-Jan-18 17:59N 29°48' W 092°09'0 0.0
2018-Jan-18 14:49N 29°48' W 092°09'0 0.4
2018-Jan-18 14:30N 29°48' W 092°09'1 1.3
2018-Jan-18 14:00N 29°47' W 092°09'8 0.8
2018-Jan-18 03:52N 29°41' W 092°15'719.1
2018-Jan-18 03:30N 29°46' W 092°11'2 4.7
2018-Jan-18 03:00N 29°48' W 092°09'  
Track history (hours):
 
Tides and Currents Weather Stations Pressure Air Temp Water Temp Dewpoint Dewpoint Depression Visibility Wind Speed Wind Dir Waves Ship Positions

Marilyn M

Owner: Offshore Oil Services Inc., Clute, TX. More information available from US FCC via Universal Licensing System and Coast Guard Vessel Documentation Center.

Last reported at 2018-Jan-24 06:36 UTC. Time now 2018-Jan-24 11:27 UTC.
Position N 29°41' W 092°15'.

Length 45 m; draft 3 m.

Type: Passenger vessel. MMSI: 367637210.

Date/timePositionNaut miles runAvg speedWind from/ knotsBaromVisibWave heightAir tempDewpointWater temp
2018-Jan-24 06:36N 29°41' W 092°15'220.8
2018-Jan-24 06:30N 29°43' W 092°15'714.2
2018-Jan-24 06:01N 29°48' W 092°09'0 0.1
2018-Jan-24 05:31N 29°48' W 092°09'0 0.0
2018-Jan-24 05:00N 29°48' W 092°09'0 0.3
2018-Jan-24 04:30N 29°48' W 092°09'0 0.0
2018-Jan-24 04:00N 29°48' W 092°09'0 0.0
2018-Jan-24 03:31N 29°48' W 092°09'0 0.0
2018-Jan-24 03:01N 29°48' W 092°09'0 0.0
2018-Jan-24 02:30N 29°48' W 092°09'0 0.0
2018-Jan-24 02:00N 29°48' W 092°09'1 1.0
2018-Jan-24 01:31N 29°47' W 092°09'815.4
2018-Jan-24 01:00N 29°42' W 092°15'2 0.2
2018-Jan-23 18:31N 29°43' W 092°15'026.5
2018-Jan-23 18:30N 29°43' W 092°15'713.5
2018-Jan-23 18:01N 29°48' W 092°09'0 0.0
2018-Jan-23 17:31N 29°48' W 092°09'0 0.0
2018-Jan-23 17:01N 29°48' W 092°09'0 0.7
2018-Jan-23 16:31N 29°47' W 092°09'815.3
2018-Jan-23 16:01N 29°42' W 092°15'1 0.1
2018-Jan-23 08:38N 29°41' W 092°15'325.1
2018-Jan-23 08:31N 29°44' W 092°14'611.6
2018-Jan-23 08:00N 29°48' W 092°09'0 0.0
2018-Jan-23 07:30N 29°48' W 092°09'0 0.0
2018-Jan-23 07:00N 29°48' W 092°09'0 0.0
2018-Jan-23 00:16N 29°48' W 092°09'0 0.0
2018-Jan-23 00:00N 29°48' W 092°09'0 0.0
2018-Jan-22 23:30N 29°48' W 092°09'0 0.0
2018-Jan-22 23:00N 29°48' W 092°09'0 0.0
2018-Jan-22 22:30N 29°48' W 092°09'0 0.0
2018-Jan-22 22:00N 29°48' W 092°09'0 0.0
2018-Jan-22 21:30N 29°48' W 092°09'0 0.0
2018-Jan-22 20:59N 29°48' W 092°09'1 1.2
2018-Jan-22 20:30N 29°47' W 092°09'7 0.9
2018-Jan-22 12:40N 29°42' W 092°15'423.8
2018-Jan-22 12:30N 29°45' W 092°13'4 8.3
2018-Jan-22 12:00N 29°48' W 092°09'0 0.0
2018-Jan-22 11:30N 29°48' W 092°09'0 0.0
2018-Jan-22 11:00N 29°48' W 092°09'0 0.0
2018-Jan-22 10:30N 29°48' W 092°09'0 0.0
2018-Jan-22 00:47N 29°48' W 092°09'1 3.0
2018-Jan-22 00:30N 29°47' W 092°09'1 2.5
2018-Jan-22 00:00N 29°47' W 092°11'1 3.0
2018-Jan-21 23:31N 29°47' W 092°09'1 1.3
2018-Jan-21 23:00N 29°48' W 092°09'2 4.7
2018-Jan-21 22:30N 29°46' W 092°11'4 0.5
2018-Jan-21 13:31N 29°43' W 092°15'012.6
2018-Jan-21 13:30N 29°44' W 092°15'510.9
2018-Jan-21 13:00N 29°47' W 092°10'1 2.4
2018-Jan-21 12:30N 29°48' W 092°09'0 0.3
2018-Jan-21 11:58N 29°48' W 092°09'0 0.0
2018-Jan-21 11:30N 29°48' W 092°09'0 0.0
2018-Jan-20 17:42N 29°48' W 092°09'0 2.3
2018-Jan-20 17:31N 29°47' W 092°09'816.4
2018-Jan-20 17:01N 29°41' W 092°15'2 0.3
2018-Jan-20 09:07N 29°44' W 092°15'324.6
2018-Jan-20 09:01N 29°45' W 092°12'4 7.8
2018-Jan-20 08:30N 29°48' W 092°09'0 0.0
2018-Jan-20 08:00N 29°48' W 092°09'0 0.0
2018-Jan-20 07:30N 29°48' W 092°09'0 0.0
2018-Jan-20 07:00N 29°48' W 092°09'0 0.0
2018-Jan-20 06:30N 29°48' W 092°09'0 0.0
2018-Jan-20 06:00N 29°48' W 092°09'0 0.0
2018-Jan-20 04:14N 29°48' W 092°09'0 0.1
2018-Jan-20 04:00N 29°48' W 092°09'0 0.0
2018-Jan-20 03:30N 29°48' W 092°09'0 0.1
2018-Jan-20 03:00N 29°48' W 092°09'2 4.7
2018-Jan-20 02:31N 29°46' W 092°11'816.5
2018-Jan-20 02:00N 29°39' W 092°16'4 0.5
2018-Jan-19 17:45N 29°43' W 092°15'521.4
2018-Jan-19 17:30N 29°46' W 092°10'2 3.3
2018-Jan-19 16:53N 29°48' W 092°09'0 0.0
2018-Jan-19 16:30N 29°48' W 092°09'0 0.0
2018-Jan-19 16:00N 29°48' W 092°09'0 0.0
2018-Jan-19 15:30N 29°48' W 092°09'0 0.0
2018-Jan-19 15:00N 29°48' W 092°09'0 0.0
2018-Jan-19 14:28N 29°48' W 092°09'0 0.0
2018-Jan-19 13:53N 29°48' W 092°09'0 0.0
2018-Jan-19 13:26N 29°48' W 092°09'0 0.0
2018-Jan-19 12:59N 29°48' W 092°09'0 0.0
2018-Jan-19 12:29N 29°48' W 092°09'0 0.3
2018-Jan-19 12:00N 29°47' W 092°09'0 0.0
2018-Jan-19 11:30N 29°47' W 092°09'0 0.6
2018-Jan-19 11:00N 29°47' W 092°09'815.8
2018-Jan-19 10:30N 29°42' W 092°15'2 0.2
2018-Jan-19 03:08N 29°43' W 092°15'220.0
2018-Jan-19 03:00N 29°45' W 092°13'4 8.6
2018-Jan-19 02:30N 29°47' W 092°09'0 0.1
2018-Jan-19 01:58N 29°48' W 092°09'0 0.3
2018-Jan-19 01:28N 29°48' W 092°09'0 0.0
2018-Jan-19 00:55N 29°48' W 092°09'0 0.0
2018-Jan-18 23:49N 29°48' W 092°09'0 0.0
2018-Jan-18 23:28N 29°48' W 092°09'0 0.0
2018-Jan-18 22:58N 29°48' W 092°09'0 0.0
2018-Jan-18 22:25N 29°48' W 092°09'0 0.0
2018-Jan-18 21:49N 29°48' W 092°09'0 0.0
2018-Jan-18 21:22N 29°48' W 092°09'0 0.0
2018-Jan-18 20:58N 29°48' W 092°09'0 0.0
2018-Jan-18 20:28N 29°48' W 092°09'0 0.0
2018-Jan-18 19:53N 29°48' W 092°09'0 0.0
2018-Jan-18 19:30N 29°48' W 092°09'0 0.0
2018-Jan-18 18:57N 29°48' W 092°09'0 0.0
2018-Jan-18 18:30N 29°48' W 092°09'0 0.0
2018-Jan-18 17:59N 29°48' W 092°09'0 0.0
2018-Jan-18 14:49N 29°48' W 092°09'0 0.4
2018-Jan-18 14:30N 29°48' W 092°09'1 1.3
2018-Jan-18 14:00N 29°47' W 092°09'8 0.8
2018-Jan-18 03:52N 29°41' W 092°15'719.1
2018-Jan-18 03:30N 29°46' W 092°11'2 4.7
2018-Jan-18 03:00N 29°48' W 092°09'  

Dump ship's entire track history